Verda, Louisiana
Current Conditions -  °F | °C
As of 1:15 PM on Thursday 30 Oct 2014 (Local Time) from KIER Reporting Station
Clear Clear  
Wind Chill: 73°   Ceiling: Unl
Heat Index: 73°   Visibility: 10mi
Dew Point: 46°   Wind: 0mph
Humidity: 39%   Direction: NA
Pressure: 30.14"   Gusts: NA
Location:  31.7°N, 92.77°W
Report Text: KIER 301815Z AUTO 00000KT 10SM CLR 23/08 A3014 RMK AO2 T02250079
Loading
Personal Weather Stations






























Interactive Weather Map
Tropical Storm Tracking
New forecast layout! Learn more

10-Day Weather Forecast

Advertisements
Track Severe Weather on mobile